createdAt,value
2017-07-31T00:00:53.640Z,18.5
2017-07-31T00:01:55.700Z,18.4
2017-07-31T00:02:57.843Z,18.4
2017-07-31T00:03:59.972Z,18.4
2017-07-31T00:05:02.099Z,18.4
2017-07-31T00:06:04.199Z,18.4
2017-07-31T00:07:06.321Z,18.4
2017-07-31T00:08:08.471Z,18.3
2017-07-31T00:09:10.647Z,18.2
2017-07-31T00:10:12.792Z,18.2
2017-07-31T00:11:14.984Z,18.1
2017-07-31T00:12:17.021Z,18.2
2017-07-31T00:13:19.141Z,18.1
2017-07-31T00:14:21.340Z,18.0
2017-07-31T00:15:23.466Z,18.1
2017-07-31T00:16:25.658Z,18.1
2017-07-31T00:17:27.810Z,18.1
2017-07-31T00:18:29.965Z,18.0
2017-07-31T00:19:32.148Z,17.9
2017-07-31T00:20:34.370Z,17.9
2017-07-31T00:21:36.508Z,18.0
2017-07-31T00:22:38.739Z,18.1
2017-07-31T00:23:40.921Z,18.0
2017-07-31T00:24:43.103Z,17.9
2017-07-31T00:25:45.274Z,17.9
2017-07-31T00:26:47.404Z,17.9
2017-07-31T00:27:49.573Z,17.9
2017-07-31T00:28:51.757Z,17.9
2017-07-31T00:29:53.914Z,17.9
2017-07-31T00:30:56.060Z,17.8
2017-07-31T00:31:58.323Z,17.8
2017-07-31T00:33:00.475Z,17.7
2017-07-31T00:34:02.603Z,17.7
2017-07-31T00:35:04.815Z,17.6
2017-07-31T00:36:07.054Z,17.7
2017-07-31T00:37:09.208Z,17.7
2017-07-31T00:38:11.376Z,17.7
2017-07-31T00:39:13.666Z,17.7
2017-07-31T00:40:15.888Z,17.7
2017-07-31T00:41:18.001Z,17.7
2017-07-31T00:42:20.215Z,17.7
2017-07-31T00:43:22.458Z,17.7
2017-07-31T00:44:24.545Z,17.7
2017-07-31T00:45:26.702Z,17.6
2017-07-31T00:46:28.850Z,17.7
2017-07-31T00:47:31.014Z,17.7
2017-07-31T00:48:33.142Z,17.7
2017-07-31T00:49:35.322Z,17.6
2017-07-31T00:50:37.594Z,17.6
2017-07-31T00:51:39.853Z,17.7
2017-07-31T00:52:42.079Z,17.7
2017-07-31T00:53:44.320Z,17.6
2017-07-31T00:54:46.509Z,17.6
2017-07-31T00:55:48.715Z,17.6
2017-07-31T00:56:50.959Z,17.7
2017-07-31T00:57:53.179Z,17.6
2017-07-31T00:58:55.328Z,17.7
2017-07-31T00:59:57.468Z,17.5
2017-07-31T01:00:59.589Z,17.5
2017-07-31T01:02:01.766Z,17.5
2017-07-31T01:03:03.923Z,17.4
2017-07-31T01:04:06.072Z,17.5
2017-07-31T01:05:08.227Z,17.4
2017-07-31T01:06:10.489Z,17.4
2017-07-31T01:07:12.640Z,17.4
2017-07-31T01:08:14.794Z,17.4
2017-07-31T01:09:16.939Z,17.3
2017-07-31T01:10:19.160Z,17.3
2017-07-31T01:11:21.284Z,17.3
2017-07-31T01:12:23.342Z,17.1
2017-07-31T01:13:25.450Z,17.0
2017-07-31T01:14:27.596Z,17.0
2017-07-31T01:15:29.671Z,16.9
2017-07-31T01:16:31.773Z,17.0
2017-07-31T01:17:33.846Z,17.0
2017-07-31T01:18:36.028Z,16.8
2017-07-31T01:19:38.099Z,16.8
2017-07-31T01:20:40.148Z,16.9
2017-07-31T01:21:42.348Z,16.8
2017-07-31T01:22:44.540Z,16.9
2017-07-31T01:23:46.639Z,16.9
2017-07-31T01:24:48.795Z,16.8
2017-07-31T01:25:51.004Z,16.8
2017-07-31T01:26:53.271Z,16.7
2017-07-31T01:27:55.337Z,16.8
2017-07-31T01:28:57.498Z,16.7
2017-07-31T01:29:59.660Z,16.7
2017-07-31T01:31:01.718Z,16.6
2017-07-31T01:32:03.932Z,16.6
2017-07-31T01:33:06.106Z,16.5
2017-07-31T01:34:08.307Z,16.6
2017-07-31T01:35:10.444Z,16.6
2017-07-31T01:36:12.586Z,16.4
2017-07-31T01:37:14.762Z,16.5
2017-07-31T01:38:16.856Z,16.6
2017-07-31T01:39:18.997Z,16.4
2017-07-31T01:40:21.038Z,16.5
2017-07-31T01:41:23.156Z,16.4
2017-07-31T01:42:25.306Z,16.3
2017-07-31T01:43:27.456Z,16.4
2017-07-31T01:44:29.461Z,16.4
2017-07-31T01:45:31.578Z,16.2
2017-07-31T01:46:33.830Z,16.4
2017-07-31T01:47:36.043Z,16.3
2017-07-31T01:48:38.039Z,16.2
2017-07-31T01:49:40.146Z,16.2
2017-07-31T01:50:42.251Z,16.3
2017-07-31T01:51:44.456Z,16.3
2017-07-31T01:52:46.544Z,16.1
2017-07-31T01:53:48.805Z,16.3
2017-07-31T01:54:50.945Z,16.1
2017-07-31T01:55:53.033Z,16.2
2017-07-31T01:56:55.204Z,16.2
2017-07-31T01:57:57.332Z,16.2
2017-07-31T01:58:59.350Z,16.1
2017-07-31T02:00:01.504Z,16.1
2017-07-31T02:01:03.508Z,16.1
2017-07-31T02:02:05.606Z,16.0
2017-07-31T02:03:07.654Z,16.1
2017-07-31T02:04:09.703Z,15.9
2017-07-31T02:05:11.695Z,16.0
2017-07-31T02:06:13.805Z,16.0
2017-07-31T02:07:16.025Z,16.0
2017-07-31T02:08:18.082Z,15.9
2017-07-31T02:09:20.140Z,16.0
2017-07-31T02:10:22.205Z,15.9
2017-07-31T02:11:24.117Z,16.0
2017-07-31T02:12:26.208Z,16.0
2017-07-31T02:13:28.268Z,15.9
2017-07-31T02:14:30.347Z,15.9
2017-07-31T02:15:32.459Z,15.9
2017-07-31T02:16:34.482Z,15.8
2017-07-31T02:17:36.624Z,15.8
2017-07-31T02:18:38.633Z,15.9
2017-07-31T02:19:40.622Z,15.9
2017-07-31T02:20:42.567Z,15.9
2017-07-31T02:21:44.525Z,15.8
2017-07-31T02:22:46.647Z,15.8
2017-07-31T02:23:48.748Z,15.8
2017-07-31T02:24:50.808Z,15.9
2017-07-31T02:25:52.772Z,15.7
2017-07-31T02:26:54.830Z,15.9
2017-07-31T02:27:56.825Z,15.8
2017-07-31T02:28:58.828Z,15.8
2017-07-31T02:30:00.751Z,15.7
2017-07-31T02:31:02.809Z,15.8
2017-07-31T02:32:04.861Z,15.7
2017-07-31T02:33:06.889Z,15.7
2017-07-31T02:34:08.946Z,15.7
2017-07-31T02:35:10.904Z,15.7
2017-07-31T02:36:13.026Z,15.8
2017-07-31T02:37:15.032Z,15.7
2017-07-31T02:38:17.030Z,15.7
2017-07-31T02:39:19.079Z,15.7
2017-07-31T02:40:21.221Z,15.6
2017-07-31T02:41:23.257Z,15.7
2017-07-31T02:42:25.277Z,15.6
2017-07-31T02:43:27.349Z,15.7
2017-07-31T02:44:29.267Z,15.7
2017-07-31T02:45:31.402Z,15.6
2017-07-31T02:46:33.383Z,15.6
2017-07-31T02:47:35.357Z,15.6
2017-07-31T02:48:37.409Z,15.6
2017-07-31T02:49:39.440Z,15.6
2017-07-31T02:50:41.369Z,15.6
2017-07-31T02:51:43.441Z,15.5
2017-07-31T02:52:45.333Z,15.4
2017-07-31T02:53:47.420Z,15.5
2017-07-31T02:54:49.412Z,15.5
2017-07-31T02:55:51.405Z,15.4
2017-07-31T02:56:53.457Z,15.5
2017-07-31T02:57:55.471Z,15.5
2017-07-31T02:58:57.552Z,15.3
2017-07-31T02:59:59.493Z,15.4
2017-07-31T03:01:01.641Z,15.3
2017-07-31T03:02:03.675Z,15.4
2017-07-31T03:03:05.597Z,15.3
2017-07-31T03:04:07.552Z,15.3
2017-07-31T03:05:09.600Z,15.3
2017-07-31T03:06:11.660Z,15.3
2017-07-31T03:07:13.721Z,15.3
2017-07-31T03:08:15.767Z,15.3
2017-07-31T03:09:17.764Z,15.2
2017-07-31T03:10:19.786Z,15.2
2017-07-31T03:11:21.872Z,15.3
2017-07-31T03:12:23.910Z,15.3
2017-07-31T03:13:25.838Z,15.3
2017-07-31T03:14:27.839Z,15.2
2017-07-31T03:15:29.827Z,15.3
2017-07-31T03:16:31.925Z,15.2
2017-07-31T03:17:33.945Z,15.3
2017-07-31T03:18:35.951Z,15.3
2017-07-31T03:19:37.869Z,15.2
2017-07-31T03:20:39.785Z,15.1
2017-07-31T03:21:41.795Z,15.3
2017-07-31T03:22:43.838Z,15.3
2017-07-31T03:23:45.903Z,15.2
2017-07-31T03:24:48.001Z,15.2
2017-07-31T03:25:49.967Z,15.2
2017-07-31T03:26:52.050Z,15.2
2017-07-31T03:27:54.028Z,15.2
2017-07-31T03:28:56.179Z,15.1
2017-07-31T03:29:58.104Z,15.1
2017-07-31T03:31:00.096Z,15.2
2017-07-31T03:32:02.050Z,15.0
2017-07-31T03:33:04.068Z,15.1
2017-07-31T03:34:06.028Z,15.0
2017-07-31T03:35:08.019Z,15.1
2017-07-31T03:36:10.099Z,15.0
2017-07-31T03:37:12.070Z,14.9
2017-07-31T03:38:14.092Z,15.0
2017-07-31T03:39:16.110Z,14.9
2017-07-31T03:40:18.022Z,15.0
2017-07-31T03:41:20.022Z,14.9
2017-07-31T03:42:22.038Z,14.9
2017-07-31T03:43:23.967Z,14.9
2017-07-31T03:44:25.978Z,15.0
2017-07-31T03:45:27.953Z,15.0
2017-07-31T03:46:29.966Z,15.0
2017-07-31T03:47:32.049Z,15.0
2017-07-31T03:48:34.050Z,15.0
2017-07-31T03:49:36.048Z,15.0
2017-07-31T03:50:38.068Z,15.0
2017-07-31T03:51:40.122Z,15.1
2017-07-31T03:52:42.075Z,15.0
2017-07-31T03:53:44.081Z,15.0
2017-07-31T03:54:46.053Z,15.2
2017-07-31T03:55:47.999Z,15.1
2017-07-31T03:56:49.974Z,15.0
2017-07-31T03:57:51.928Z,15.1
2017-07-31T03:58:53.828Z,15.0
2017-07-31T03:59:55.849Z,15.2
2017-07-31T04:00:57.714Z,15.1
2017-07-31T04:01:59.674Z,15.1
2017-07-31T04:03:01.618Z,15.2
2017-07-31T04:04:03.474Z,15.2
2017-07-31T04:05:05.373Z,15.1
2017-07-31T04:06:07.458Z,15.1
2017-07-31T04:07:09.476Z,15.1
2017-07-31T04:08:11.526Z,15.1
2017-07-31T04:09:13.566Z,15.2
2017-07-31T04:10:15.689Z,15.3
2017-07-31T04:11:17.781Z,15.2
2017-07-31T04:12:19.831Z,15.2
2017-07-31T04:13:21.838Z,15.3
2017-07-31T04:14:23.899Z,15.2
2017-07-31T04:15:25.837Z,15.2
2017-07-31T04:16:27.893Z,15.3
2017-07-31T04:17:29.993Z,15.2
2017-07-31T04:18:31.866Z,15.3
2017-07-31T04:19:33.943Z,15.4
2017-07-31T04:20:35.855Z,15.3
2017-07-31T04:21:37.917Z,15.4
2017-07-31T04:22:39.867Z,15.3
2017-07-31T04:23:41.989Z,15.5
2017-07-31T04:24:43.968Z,15.4
2017-07-31T04:25:46.092Z,15.4
2017-07-31T04:26:48.090Z,15.3
2017-07-31T04:27:50.181Z,15.3
2017-07-31T04:28:52.277Z,15.3
2017-07-31T04:29:54.314Z,15.3
2017-07-31T04:30:56.274Z,15.3
2017-07-31T04:31:58.272Z,15.4
2017-07-31T04:33:00.265Z,15.3
2017-07-31T04:34:02.258Z,15.3
2017-07-31T04:35:04.163Z,15.3
2017-07-31T04:36:06.235Z,15.3
2017-07-31T04:37:08.273Z,15.4
2017-07-31T04:38:10.320Z,15.3
2017-07-31T04:39:12.403Z,15.4
2017-07-31T04:40:14.361Z,15.2
2017-07-31T04:41:16.372Z,15.4
2017-07-31T04:42:18.408Z,15.3
2017-07-31T04:43:20.471Z,15.4
2017-07-31T04:44:22.538Z,15.3
2017-07-31T04:45:24.470Z,15.3
2017-07-31T04:46:26.567Z,15.2
2017-07-31T04:47:28.632Z,15.3
2017-07-31T04:48:30.644Z,15.3
2017-07-31T04:49:32.586Z,15.3
2017-07-31T04:50:34.641Z,15.3
2017-07-31T04:51:36.739Z,15.3
2017-07-31T04:52:38.732Z,15.3
2017-07-31T04:53:40.760Z,15.3
2017-07-31T04:54:42.786Z,15.4
2017-07-31T04:55:44.937Z,15.4
2017-07-31T04:56:46.958Z,15.4
2017-07-31T04:57:48.868Z,15.4
2017-07-31T04:58:50.988Z,15.3
2017-07-31T04:59:53.079Z,15.5
2017-07-31T05:00:55.108Z,15.4
2017-07-31T05:01:57.191Z,15.5
2017-07-31T05:02:59.325Z,15.5
2017-07-31T05:04:01.052Z,15.5
2017-07-31T05:05:04.148Z,15.8
2017-07-31T05:06:05.707Z,15.9
2017-07-31T05:07:07.447Z,16.0
2017-07-31T05:34:40.895Z,17.2
2017-07-31T05:35:42.556Z,17.3
2017-07-31T05:36:44.237Z,17.5
2017-07-31T05:37:45.870Z,17.4
2017-07-31T05:38:47.508Z,17.6
2017-07-31T05:39:49.150Z,17.7
2017-07-31T05:40:50.797Z,17.6
2017-07-31T05:41:52.453Z,17.7
2017-07-31T05:42:54.095Z,17.6
2017-07-31T05:43:55.724Z,17.5
2017-07-31T05:44:57.373Z,17.4
2017-07-31T05:45:59.091Z,17.4
2017-07-31T05:47:00.786Z,17.4
2017-07-31T05:48:02.421Z,17.3
2017-07-31T05:49:04.216Z,17.3
2017-07-31T05:50:06.225Z,17.3
2017-07-31T05:51:07.918Z,17.3
2017-07-31T05:52:09.590Z,17.3
2017-07-31T05:53:11.384Z,17.3
2017-07-31T05:54:13.515Z,17.4
2017-07-31T05:55:15.322Z,17.3
2017-07-31T05:56:17.034Z,17.5
2017-07-31T05:57:18.786Z,17.6
2017-07-31T05:58:21.009Z,17.7
2017-07-31T05:59:22.706Z,17.7
2017-07-31T06:00:24.454Z,17.8
2017-07-31T06:01:26.282Z,17.9
2017-07-31T06:02:27.982Z,18.0
2017-07-31T06:03:29.623Z,18.0
2017-07-31T06:04:31.260Z,18.2
2017-07-31T06:05:32.895Z,18.1
2017-07-31T06:06:34.530Z,18.1
2017-07-31T06:07:36.200Z,18.0
2017-07-31T06:08:37.869Z,18.1
2017-07-31T06:09:39.512Z,18.1
2017-07-31T06:10:41.260Z,18.2
2017-07-31T06:11:42.930Z,18.4
2017-07-31T06:12:44.682Z,18.4
2017-07-31T06:13:46.374Z,18.6
2017-07-31T06:14:48.071Z,18.8
2017-07-31T06:15:49.768Z,18.9
2017-07-31T06:16:51.547Z,19.1
2017-07-31T06:17:53.269Z,19.2
2017-07-31T06:18:54.979Z,19.2
2017-07-31T06:19:56.899Z,19.4
2017-07-31T06:20:58.615Z,19.5
2017-07-31T06:22:00.308Z,19.6
2017-07-31T06:23:02.032Z,19.7
2017-07-31T06:24:03.752Z,19.8
2017-07-31T06:25:05.518Z,19.8
2017-07-31T06:26:07.216Z,19.9
2017-07-31T06:27:08.918Z,20.0
2017-07-31T06:28:10.567Z,19.9
2017-07-31T06:29:12.278Z,20.3
2017-07-31T06:30:13.993Z,20.5
2017-07-31T06:31:15.720Z,20.4
2017-07-31T06:32:17.478Z,20.5
2017-07-31T06:33:19.205Z,20.4
2017-07-31T06:34:20.921Z,20.5
2017-07-31T06:35:22.765Z,20.8
2017-07-31T06:37:34.346Z,21.2
2017-07-31T06:38:35.984Z,21.1
2017-07-31T06:39:37.614Z,20.9
2017-07-31T06:40:39.247Z,20.9
2017-07-31T06:41:41.880Z,21.3
2017-07-31T06:42:44.156Z,21.7
2017-07-31T06:43:46.542Z,22.4
2017-07-31T06:44:48.992Z,22.9
2017-07-31T15:19:58.828Z,27.8
2017-07-31T15:21:00.460Z,27.7
2017-07-31T15:22:52.169Z,27.7
2017-07-31T15:23:53.796Z,27.9
2017-07-31T15:25:47.014Z,28.0
2017-07-31T15:26:48.657Z,28.1
2017-07-31T15:27:52.374Z,28.3
2017-07-31T15:28:54.009Z,28.4
2017-07-31T15:29:55.971Z,28.5
2017-07-31T15:30:57.607Z,28.6
2017-07-31T15:31:59.276Z,28.9
2017-07-31T15:33:00.950Z,28.9
2017-07-31T15:34:02.589Z,29.0
2017-07-31T15:35:04.845Z,28.8
2017-07-31T15:36:06.800Z,28.7
2017-07-31T15:37:08.432Z,28.6
2017-07-31T15:38:10.192Z,28.6
2017-07-31T15:39:12.477Z,28.5
2017-07-31T15:40:14.363Z,28.5
2017-07-31T15:41:16.126Z,28.9
2017-07-31T15:42:17.898Z,28.7
2017-07-31T15:43:20.062Z,28.7
2017-07-31T15:44:22.170Z,28.6
2017-07-31T15:45:24.396Z,28.5
2017-07-31T15:46:26.289Z,28.4
2017-07-31T15:47:28.002Z,28.3
2017-07-31T15:48:30.076Z,28.2
2017-07-31T15:49:32.085Z,28.3
2017-07-31T15:50:34.080Z,28.3
2017-07-31T15:51:36.487Z,28.2
2017-07-31T15:52:38.768Z,28.3
2017-07-31T15:59:33.025Z,28.1
2017-07-31T16:00:37.273Z,27.9
2017-07-31T16:06:22.599Z,28.2
2017-07-31T16:07:24.187Z,28.1
2017-07-31T16:08:25.822Z,28.0
2017-07-31T16:09:27.478Z,27.9
2017-07-31T16:10:29.139Z,28.0
2017-07-31T16:11:30.771Z,27.9
2017-07-31T16:20:40.251Z,28.0
2017-07-31T16:21:42.655Z,27.9
2017-07-31T16:41:10.262Z,27.2
2017-07-31T16:42:11.921Z,27.4
2017-07-31T16:43:15.403Z,27.3
2017-07-31T16:44:17.489Z,27.1
2017-07-31T16:45:19.693Z,27.1
2017-07-31T16:46:21.363Z,27.0
2017-07-31T16:47:23.920Z,27.1
2017-07-31T16:48:26.253Z,27.0
2017-07-31T16:49:28.192Z,27.0
2017-07-31T16:50:30.306Z,26.9
2017-07-31T16:53:53.645Z,26.8
2017-07-31T16:54:55.633Z,26.8
2017-07-31T16:57:08.098Z,26.6
2017-07-31T16:58:10.199Z,26.6
2017-07-31T16:59:12.280Z,26.4
2017-07-31T17:00:14.340Z,26.5
2017-07-31T17:01:16.487Z,26.3
2017-07-31T17:03:28.103Z,26.4
2017-07-31T17:05:42.098Z,26.4
2017-07-31T17:06:44.434Z,26.5
2017-07-31T17:07:46.712Z,26.4
2017-07-31T17:08:49.118Z,26.5
2017-07-31T17:09:51.302Z,26.7
2017-07-31T17:10:53.730Z,26.7
2017-07-31T17:11:56.076Z,26.7
2017-07-31T17:12:58.313Z,26.7
2017-07-31T17:14:00.944Z,26.7
2017-07-31T17:15:03.390Z,26.8
2017-07-31T17:16:05.926Z,26.7
2017-07-31T17:17:08.473Z,26.8
2017-07-31T17:18:10.770Z,26.7
2017-07-31T17:19:13.107Z,26.7
2017-07-31T17:20:15.464Z,26.7
2017-07-31T17:21:17.726Z,26.7
2017-07-31T17:22:20.169Z,26.7
2017-07-31T17:23:22.441Z,26.7
2017-07-31T17:24:24.743Z,26.7
2017-07-31T17:25:27.343Z,26.6
2017-07-31T17:26:29.668Z,26.6
2017-07-31T17:27:32.022Z,26.7
2017-07-31T17:28:34.346Z,26.7
2017-07-31T17:29:36.650Z,26.7
2017-07-31T17:30:38.930Z,26.8
2017-07-31T17:31:41.225Z,26.7
2017-07-31T17:32:43.446Z,26.7
2017-07-31T17:33:45.753Z,26.6
2017-07-31T17:34:48.087Z,26.5
2017-07-31T17:35:50.317Z,26.5
2017-07-31T17:36:52.456Z,26.6
2017-07-31T17:37:54.706Z,26.5
2017-07-31T17:38:56.918Z,26.4
2017-07-31T17:39:59.128Z,26.4
2017-07-31T17:41:01.299Z,26.4
2017-07-31T17:42:03.514Z,26.3
2017-07-31T17:43:05.597Z,26.2
2017-07-31T17:44:07.723Z,26.2
2017-07-31T17:45:09.934Z,26.2
2017-07-31T17:46:12.108Z,26.1
2017-07-31T17:47:14.371Z,26.0
2017-07-31T17:48:16.591Z,25.9
2017-07-31T17:49:18.843Z,25.8
2017-07-31T17:50:21.030Z,25.8
2017-07-31T17:51:23.235Z,25.8
2017-07-31T17:52:25.383Z,25.8
2017-07-31T17:53:27.696Z,25.8
2017-07-31T17:54:29.772Z,25.8
2017-07-31T17:55:31.898Z,25.8
2017-07-31T17:56:34.043Z,25.7
2017-07-31T17:57:36.175Z,25.6
2017-07-31T17:58:38.407Z,25.5
2017-07-31T17:59:40.605Z,25.6
2017-07-31T18:00:42.932Z,25.5
2017-07-31T18:01:44.961Z,25.5
2017-07-31T18:02:47.059Z,25.5
2017-07-31T18:03:49.217Z,25.5
2017-07-31T18:04:51.399Z,25.5
2017-07-31T18:05:53.571Z,25.4
2017-07-31T18:06:55.657Z,25.4
2017-07-31T18:07:57.837Z,25.4
2017-07-31T18:09:00.073Z,25.3
2017-07-31T18:10:02.177Z,25.3
2017-07-31T18:11:04.335Z,25.3
2017-07-31T18:12:06.525Z,25.2
2017-07-31T18:13:08.671Z,25.2
2017-07-31T18:14:10.846Z,25.2
2017-07-31T18:15:13.063Z,25.1
2017-07-31T18:16:15.194Z,25.1
2017-07-31T18:17:17.391Z,25.0
2017-07-31T18:18:19.623Z,25.1
2017-07-31T18:19:21.769Z,25.1
2017-07-31T18:20:23.955Z,25.0
2017-07-31T18:21:26.093Z,25.0
2017-07-31T18:22:28.180Z,24.9
2017-07-31T18:23:30.367Z,24.9
2017-07-31T18:24:32.483Z,25.0
2017-07-31T18:25:34.594Z,24.8
2017-07-31T18:26:36.935Z,24.9
2017-07-31T18:27:39.163Z,24.8
2017-07-31T18:28:41.367Z,24.8
2017-07-31T18:29:43.531Z,24.8
2017-07-31T18:30:45.851Z,24.7
2017-07-31T18:31:48.256Z,24.7
2017-07-31T18:32:50.547Z,24.6
2017-07-31T18:33:52.816Z,24.6
2017-07-31T18:34:55.159Z,24.6
2017-07-31T18:35:57.596Z,24.6
2017-07-31T18:36:59.817Z,24.5
2017-07-31T18:38:02.020Z,24.5
2017-07-31T18:39:04.297Z,24.4
2017-07-31T18:40:06.505Z,24.4
2017-07-31T18:41:08.758Z,24.4
2017-07-31T18:42:11.072Z,24.2
2017-07-31T18:43:13.384Z,24.1
2017-07-31T18:44:15.614Z,24.1
2017-07-31T18:45:17.872Z,24.1
2017-07-31T18:46:20.167Z,24.2
2017-07-31T18:47:22.482Z,24.1
2017-07-31T18:48:24.755Z,23.9
2017-07-31T18:49:26.979Z,23.9
2017-07-31T18:50:29.303Z,23.9
2017-07-31T18:51:31.581Z,23.8
2017-07-31T18:52:33.814Z,23.8
2017-07-31T18:53:35.974Z,23.7
2017-07-31T18:54:38.372Z,23.8
2017-07-31T18:55:40.622Z,23.7
2017-07-31T18:56:42.877Z,23.6
2017-07-31T18:57:45.038Z,23.6
2017-07-31T18:58:47.319Z,23.5
2017-07-31T18:59:49.687Z,23.5
2017-07-31T19:00:52.018Z,23.4
2017-07-31T19:01:54.295Z,23.4
2017-07-31T19:02:56.592Z,23.3
2017-07-31T19:03:58.799Z,23.3
2017-07-31T19:05:01.125Z,23.2
2017-07-31T19:06:03.376Z,23.2
2017-07-31T19:07:05.739Z,23.2
2017-07-31T19:08:08.020Z,23.1
2017-07-31T19:09:10.287Z,23.1
2017-07-31T19:10:12.611Z,23.0
2017-07-31T19:11:14.926Z,23.0
2017-07-31T19:12:17.205Z,23.0
2017-07-31T19:13:20.485Z,23.0
2017-07-31T19:14:22.739Z,22.9
2017-07-31T19:15:25.366Z,23.0
2017-07-31T19:16:27.662Z,22.9
2017-07-31T19:17:29.935Z,23.0
2017-07-31T19:18:32.150Z,23.0
2017-07-31T19:19:34.466Z,23.0
2017-07-31T19:20:36.753Z,23.0
2017-07-31T19:21:38.976Z,23.0
2017-07-31T19:22:40.995Z,23.0
2017-07-31T19:23:44.808Z,23.1
2017-07-31T19:24:47.256Z,23.0
2017-07-31T19:25:49.415Z,22.9
2017-07-31T19:26:51.907Z,22.9
2017-07-31T19:27:54.448Z,22.7
2017-07-31T19:28:56.783Z,22.6
2017-07-31T19:29:59.119Z,22.6
2017-07-31T19:31:01.414Z,22.5
2017-07-31T19:32:03.763Z,22.5
2017-07-31T19:33:05.937Z,22.4
2017-07-31T19:34:08.214Z,22.3
2017-07-31T19:35:10.645Z,22.3
2017-07-31T19:36:12.833Z,22.4
2017-07-31T19:37:15.064Z,22.2
2017-07-31T19:38:17.846Z,22.2
2017-07-31T19:39:20.215Z,22.1
2017-07-31T19:40:22.545Z,22.1
2017-07-31T19:41:24.834Z,22.1
2017-07-31T19:42:27.142Z,22.1
2017-07-31T19:43:29.422Z,21.9
2017-07-31T19:44:31.632Z,21.9
2017-07-31T19:45:34.093Z,21.8
2017-07-31T19:46:36.372Z,21.8
2017-07-31T19:47:38.761Z,21.8
2017-07-31T19:48:41.022Z,21.8
2017-07-31T19:49:43.204Z,21.8
2017-07-31T19:50:45.591Z,21.7
2017-07-31T19:51:47.972Z,21.7
2017-07-31T19:52:50.273Z,21.7
2017-07-31T19:53:52.681Z,21.7
2017-07-31T19:54:54.891Z,21.6
2017-07-31T19:55:57.213Z,21.6
2017-07-31T19:56:59.493Z,21.6
2017-07-31T19:58:02.552Z,21.6
2017-07-31T19:59:04.821Z,21.6
2017-07-31T20:00:07.041Z,21.5
2017-07-31T20:01:09.345Z,21.5
2017-07-31T20:02:13.420Z,21.5
2017-07-31T20:03:15.825Z,21.4
2017-07-31T20:04:18.170Z,21.5
2017-07-31T20:05:20.360Z,21.4
2017-07-31T20:07:32.566Z,21.3
2017-07-31T20:08:35.637Z,21.4
2017-07-31T20:09:37.835Z,21.3
2017-07-31T20:10:40.035Z,21.3
2017-07-31T20:11:42.325Z,21.2
2017-07-31T20:12:44.616Z,21.2
2017-07-31T20:13:47.739Z,21.2
2017-07-31T20:14:49.911Z,21.1
2017-07-31T20:15:52.181Z,21.3
2017-07-31T20:16:54.488Z,21.3
2017-07-31T20:17:57.659Z,21.2
2017-07-31T20:18:59.971Z,21.3
2017-07-31T20:20:02.322Z,21.3
2017-07-31T20:21:04.625Z,21.3
2017-07-31T20:22:06.858Z,21.2
2017-07-31T20:23:09.652Z,21.2
2017-07-31T20:24:12.008Z,21.1
2017-07-31T20:25:14.321Z,21.1
2017-07-31T20:26:17.314Z,21.2
2017-07-31T20:57:53.935Z,21.3
2017-07-31T20:58:56.051Z,21.3
